sensor_id;sensor_type;location;lat;lon;timestamp;pressure;altitude;pressure_sealevel;temperature;humidity
42587;BME280;28216;53.362;-6.288;2022-11-20T00:01:25;100276.22;;;7.39;100.00
42587;BME280;28216;53.362;-6.288;2022-11-20T00:03:52;100285.97;;;7.37;100.00
42587;BME280;28216;53.362;-6.288;2022-11-20T00:06:19;100277.50;;;7.35;100.00
42587;BME280;28216;53.362;-6.288;2022-11-20T00:08:46;100288.06;;;7.33;100.00
42587;BME280;28216;53.362;-6.288;2022-11-20T00:11:13;100289.03;;;7.32;100.00
42587;BME280;28216;53.362;-6.288;2022-11-20T00:13:39;100290.81;;;7.32;100.00
42587;BME280;28216;53.362;-6.288;2022-11-20T00:16:08;100291.81;;;7.31;100.00
42587;BME280;28216;53.362;-6.288;2022-11-20T00:18:34;100288.53;;;7.29;100.00
42587;BME280;28216;53.362;-6.288;2022-11-20T00:21:05;100292.09;;;7.28;100.00
42587;BME280;28216;53.362;-6.288;2022-11-20T00:23:31;100292.41;;;7.25;100.00
42587;BME280;28216;53.362;-6.288;2022-11-20T00:26:01;100294.34;;;7.23;100.00
42587;BME280;28216;53.362;-6.288;2022-11-20T00:28:27;100291.88;;;7.21;100.00
42587;BME280;28216;53.362;-6.288;2022-11-20T00:31:00;100291.19;;;7.19;100.00
42587;BME280;28216;53.362;-6.288;2022-11-20T00:33:25;100300.13;;;7.17;100.00
42587;BME280;28216;53.362;-6.288;2022-11-20T00:35:51;100299.47;;;7.15;100.00
42587;BME280;28216;53.362;-6.288;2022-11-20T00:38:16;100304.00;;;7.13;100.00
42587;BME280;28216;53.362;-6.288;2022-11-20T00:40:42;100307.72;;;7.10;100.00
42587;BME280;28216;53.362;-6.288;2022-11-20T00:43:07;100305.28;;;7.09;100.00
42587;BME280;28216;53.362;-6.288;2022-11-20T00:45:33;100305.44;;;7.07;100.00
42587;BME280;28216;53.362;-6.288;2022-11-20T00:47:58;100313.53;;;7.04;100.00
42587;BME280;28216;53.362;-6.288;2022-11-20T00:50:23;100319.03;;;7.01;100.00
42587;BME280;28216;53.362;-6.288;2022-11-20T00:52:49;100317.41;;;7.00;100.00
42587;BME280;28216;53.362;-6.288;2022-11-20T00:55:14;100323.59;;;6.99;100.00
42587;BME280;28216;53.362;-6.288;2022-11-20T00:57:40;100321.13;;;6.97;100.00
42587;BME280;28216;53.362;-6.288;2022-11-20T01:00:06;100324.69;;;6.96;100.00
42587;BME280;28216;53.362;-6.288;2022-11-20T01:02:31;100318.81;;;6.94;100.00
42587;BME280;28216;53.362;-6.288;2022-11-20T01:04:57;100330.06;;;6.95;100.00
42587;BME280;28216;53.362;-6.288;2022-11-20T01:07:22;100329.38;;;6.93;100.00
42587;BME280;28216;53.362;-6.288;2022-11-20T01:09:48;100325.97;;;6.92;100.00
42587;BME280;28216;53.362;-6.288;2022-11-20T01:12:13;100320.22;;;6.89;100.00
42587;BME280;28216;53.362;-6.288;2022-11-20T01:14:38;100321.19;;;6.88;100.00
42587;BME280;28216;53.362;-6.288;2022-11-20T01:17:04;100322.16;;;6.87;100.00
42587;BME280;28216;53.362;-6.288;2022-11-20T01:19:29;100323.13;;;6.86;100.00
42587;BME280;28216;53.362;-6.288;2022-11-20T01:21:55;100318.88;;;6.85;100.00
42587;BME280;28216;53.362;-6.288;2022-11-20T01:24:21;100319.69;;;6.85;100.00
42587;BME280;28216;53.362;-6.288;2022-11-20T01:26:48;100316.41;;;6.83;100.00
42587;BME280;28216;53.362;-6.288;2022-11-20T01:29:18;100313.94;;;6.82;100.00
42587;BME280;28216;53.362;-6.288;2022-11-20T01:31:44;100321.78;;;6.82;100.00
42587;BME280;28216;53.362;-6.288;2022-11-20T01:34:15;100322.59;;;6.82;100.00
42587;BME280;28216;53.362;-6.288;2022-11-20T01:36:42;100320.94;;;6.81;100.00
42587;BME280;28216;53.362;-6.288;2022-11-20T01:39:13;100313.13;;;6.81;100.00
42587;BME280;28216;53.362;-6.288;2022-11-20T01:41:39;100321.09;;;6.80;100.00
42587;BME280;28216;53.362;-6.288;2022-11-20T01:47:19;100325.34;;;6.81;100.00
42587;BME280;28216;53.362;-6.288;2022-11-20T01:49:54;100322.75;;;6.81;100.00
42587;BME280;28216;53.362;-6.288;2022-11-20T01:52:30;100330.41;;;6.82;100.00
42587;BME280;28216;53.362;-6.288;2022-11-20T01:55:05;100331.22;;;6.83;100.00
42587;BME280;28216;53.362;-6.288;2022-11-20T01:57:33;100333.84;;;6.83;100.00
42587;BME280;28216;53.362;-6.288;2022-11-20T02:00:08;100331.09;;;6.84;100.00
42587;BME280;28216;53.362;-6.288;2022-11-20T02:02:35;100340.53;;;6.85;100.00
42587;BME280;28216;53.362;-6.288;2022-11-20T02:05:09;100331.91;;;6.85;100.00
42587;BME280;28216;53.362;-6.288;2022-11-20T02:07:37;100335.31;;;6.85;100.00
42587;BME280;28216;53.362;-6.288;2022-11-20T02:10:03;100326.84;;;6.83;100.00
42587;BME280;28216;53.362;-6.288;2022-11-20T02:12:29;100335.63;;;6.82;100.00
42587;BME280;28216;53.362;-6.288;2022-11-20T02:15:13;100336.44;;;6.83;100.00
42587;BME280;28216;53.362;-6.288;2022-11-20T02:17:38;100339.03;;;6.83;100.00
42587;BME280;28216;53.362;-6.288;2022-11-20T02:20:04;100342.63;;;6.82;100.00
42587;BME280;28216;53.362;-6.288;2022-11-20T02:22:55;100346.03;;;6.82;100.00
42587;BME280;28216;53.362;-6.288;2022-11-20T02:25:23;100348.78;;;6.81;100.00
42587;BME280;28216;53.362;-6.288;2022-11-20T02:27:50;100351.53;;;6.79;100.00
42587;BME280;28216;53.362;-6.288;2022-11-20T02:30:16;100360.31;;;6.78;100.00
42587;BME280;28216;53.362;-6.288;2022-11-20T02:32:42;100344.69;;;6.78;100.00
42587;BME280;28216;53.362;-6.288;2022-11-20T02:37:48;100349.63;;;6.81;100.00
42587;BME280;28216;53.362;-6.288;2022-11-20T02:40:14;100351.94;;;6.84;100.00
42587;BME280;28216;53.362;-6.288;2022-11-20T02:42:40;100350.81;;;6.87;100.00
42587;BME280;28216;53.362;-6.288;2022-11-20T02:45:06;100351.19;;;6.92;100.00
42587;BME280;28216;53.362;-6.288;2022-11-20T02:47:31;100338.84;;;6.94;100.00
42587;BME280;28216;53.362;-6.288;2022-11-20T02:49:57;100332.81;;;6.93;100.00
42587;BME280;28216;53.362;-6.288;2022-11-20T02:52:23;100341.75;;;6.91;100.00
42587;BME280;28216;53.362;-6.288;2022-11-20T02:54:48;100337.50;;;6.90;100.00
42587;BME280;28216;53.362;-6.288;2022-11-20T02:57:14;100333.69;;;6.84;100.00
42587;BME280;28216;53.362;-6.288;2022-11-20T02:59:39;100327.13;;;6.80;100.00
42587;BME280;28216;53.362;-6.288;2022-11-20T03:02:05;100343.19;;;6.76;100.00
42587;BME280;28216;53.362;-6.288;2022-11-20T03:04:31;100336.88;;;6.68;100.00
42587;BME280;28216;53.362;-6.288;2022-11-20T03:06:56;100348.72;;;6.63;100.00
42587;BME280;28216;53.362;-6.288;2022-11-20T03:09:22;100343.13;;;6.58;100.00
42587;BME280;28216;53.362;-6.288;2022-11-20T03:11:47;100340.13;;;6.53;100.00
42587;BME280;28216;53.362;-6.288;2022-11-20T03:14:13;100341.50;;;6.47;100.00
42587;BME280;28216;53.362;-6.288;2022-11-20T03:16:39;100347.16;;;6.43;100.00
42587;BME280;28216;53.362;-6.288;2022-11-20T03:19:05;100357.72;;;6.41;100.00
42587;BME280;28216;53.362;-6.288;2022-11-20T03:21:30;100349.34;;;6.37;100.00
42587;BME280;28216;53.362;-6.288;2022-11-20T03:23:57;100340.19;;;6.33;100.00
42587;BME280;28216;53.362;-6.288;2022-11-20T03:26:25;100333.63;;;6.29;100.00
42587;BME280;28216;53.362;-6.288;2022-11-20T03:28:55;100321.72;;;6.27;100.00
42587;BME280;28216;53.362;-6.288;2022-11-20T03:31:33;100313.50;;;6.22;100.00
42587;BME280;28216;53.362;-6.288;2022-11-20T03:34:00;100307.91;;;6.17;100.00
42587;BME280;28216;53.362;-6.288;2022-11-20T03:36:26;100300.53;;;6.12;100.00
42587;BME280;28216;53.362;-6.288;2022-11-20T03:38:56;100308.47;;;6.11;100.00
42587;BME280;28216;53.362;-6.288;2022-11-20T03:41:27;100310.41;;;6.09;100.00
42587;BME280;28216;53.362;-6.288;2022-11-20T03:44:03;100310.53;;;6.07;100.00
42587;BME280;28216;53.362;-6.288;2022-11-20T03:46:29;100303.69;;;6.06;100.00
42587;BME280;28216;53.362;-6.288;2022-11-20T03:48:55;100299.44;;;6.05;100.00
42587;BME280;28216;53.362;-6.288;2022-11-20T03:51:41;100302.72;;;6.07;100.00
42587;BME280;28216;53.362;-6.288;2022-11-20T03:54:08;100306.56;;;6.03;100.00
42587;BME280;28216;53.362;-6.288;2022-11-20T03:56:37;100312.59;;;6.03;100.00
42587;BME280;28216;53.362;-6.288;2022-11-20T03:59:04;100312.59;;;6.03;100.00
42587;BME280;28216;53.362;-6.288;2022-11-20T04:01:32;100312.59;;;6.03;100.00
42587;BME280;28216;53.362;-6.288;2022-11-20T04:03:58;100312.59;;;6.03;100.00
42587;BME280;28216;53.362;-6.288;2022-11-20T04:06:26;100317.81;;;6.03;100.00
42587;BME280;28216;53.362;-6.288;2022-11-20T04:08:57;100307.41;;;6.03;100.00
42587;BME280;28216;53.362;-6.288;2022-11-20T04:11:24;100311.63;;;6.04;100.00
42587;BME280;28216;53.362;-6.288;2022-11-20T04:13:53;100304.78;;;6.03;100.00
42587;BME280;28216;53.362;-6.288;2022-11-20T04:16:19;100304.66;;;6.05;100.00
42587;BME280;28216;53.362;-6.288;2022-11-20T04:18:44;100293.44;;;6.04;100.00
42587;BME280;28216;53.362;-6.288;2022-11-20T04:21:10;100302.19;;;6.03;100.00
42587;BME280;28216;53.362;-6.288;2022-11-20T04:23:36;100304.78;;;6.03;100.00
42587;BME280;28216;53.362;-6.288;2022-11-20T04:26:11;100299.44;;;6.05;100.00
42587;BME280;28216;53.362;-6.288;2022-11-20T04:28:39;100302.19;;;6.03;100.00
42587;BME280;28216;53.362;-6.288;2022-11-20T04:31:13;100311.63;;;6.04;100.00
42587;BME280;28216;53.362;-6.288;2022-11-20T04:33:39;100334.25;;;6.04;100.00
42587;BME280;28216;53.362;-6.288;2022-11-20T04:36:17;100325.34;;;6.07;100.00
42587;BME280;28216;53.362;-6.288;2022-11-20T04:38:43;100323.84;;;6.04;100.00
42587;BME280;28216;53.362;-6.288;2022-11-20T04:41:17;100330.69;;;6.05;100.00
42587;BME280;28216;53.362;-6.288;2022-11-20T04:43:47;100340.94;;;6.07;100.00
42587;BME280;28216;53.362;-6.288;2022-11-20T04:46:14;100343.56;;;6.07;100.00
42587;BME280;28216;53.362;-6.288;2022-11-20T04:48:39;100344.22;;;6.09;100.00
42587;BME280;28216;53.362;-6.288;2022-11-20T04:51:05;100340.66;;;6.10;100.00
42587;BME280;28216;53.362;-6.288;2022-11-20T04:53:31;100346.56;;;6.12;100.00
42587;BME280;28216;53.362;-6.288;2022-11-20T04:56:07;100347.38;;;6.12;100.00
42587;BME280;28216;53.362;-6.288;2022-11-20T04:58:33;100345.72;;;6.11;100.00
42587;BME280;28216;53.362;-6.288;2022-11-20T05:01:07;100346.56;;;6.12;100.00
42587;BME280;28216;53.362;-6.288;2022-11-20T05:03:34;100344.91;;;6.11;100.00
42587;BME280;28216;53.362;-6.288;2022-11-20T05:06:03;100346.69;;;6.10;100.00
42587;BME280;28216;53.362;-6.288;2022-11-20T05:08:30;100340.66;;;6.10;100.00
42587;BME280;28216;53.362;-6.288;2022-11-20T05:11:04;100341.63;;;6.09;100.00
42587;BME280;28216;53.362;-6.288;2022-11-20T05:13:30;100355.59;;;6.08;100.00
42587;BME280;28216;53.362;-6.288;2022-11-20T05:15:55;100354.78;;;6.07;100.00
42587;BME280;28216;53.362;-6.288;2022-11-20T05:18:25;100360.00;;;6.07;100.00
42587;BME280;28216;53.362;-6.288;2022-11-20T05:20:55;100366.97;;;6.07;100.00
42587;BME280;28216;53.362;-6.288;2022-11-20T05:23:21;100368.91;;;6.04;100.00
42587;BME280;28216;53.362;-6.288;2022-11-20T05:25:46;100368.91;;;6.04;100.00
42587;BME280;28216;53.362;-6.288;2022-11-20T05:28:12;100371.50;;;6.04;100.00
42587;BME280;28216;53.362;-6.288;2022-11-20T05:30:37;100372.47;;;6.03;100.00
42587;BME280;28216;53.362;-6.288;2022-11-20T05:33:03;100366.56;;;6.01;100.00
42587;BME280;28216;53.362;-6.288;2022-11-20T05:35:28;100371.09;;;5.99;100.00
42587;BME280;28216;53.362;-6.288;2022-11-20T05:37:53;100364.94;;;6.00;100.00
42587;BME280;28216;53.362;-6.288;2022-11-20T05:40:19;100367.81;;;5.97;100.00
42587;BME280;28216;53.362;-6.288;2022-11-20T05:42:44;100357.53;;;5.96;100.00
42587;BME280;28216;53.362;-6.288;2022-11-20T05:45:10;100348.19;;;5.93;100.00
42587;BME280;28216;53.362;-6.288;2022-11-20T05:47:35;100353.53;;;5.92;100.00
42587;BME280;28216;53.362;-6.288;2022-11-20T05:50:01;100359.72;;;5.91;100.00
42587;BME280;28216;53.362;-6.288;2022-11-20T05:52:29;100356.41;;;5.89;100.00
42587;BME280;28216;53.362;-6.288;2022-11-20T05:54:56;100353.94;;;5.87;100.00
42587;BME280;28216;53.362;-6.288;2022-11-20T05:57:21;100344.34;;;5.88;100.00
42587;BME280;28216;53.362;-6.288;2022-11-20T05:59:47;100355.72;;;5.87;100.00
42587;BME280;28216;53.362;-6.288;2022-11-20T06:02:12;100351.34;;;5.87;100.00
42587;BME280;28216;53.362;-6.288;2022-11-20T06:04:37;100348.72;;;5.87;100.00
42587;BME280;28216;53.362;-6.288;2022-11-20T06:07:05;100344.34;;;5.88;100.00
42587;BME280;28216;53.362;-6.288;2022-11-20T06:09:30;100336.53;;;5.88;100.00
42587;BME280;28216;53.362;-6.288;2022-11-20T06:11:56;100339.16;;;5.88;100.00
42587;BME280;28216;53.362;-6.288;2022-11-20T06:14:21;100333.94;;;5.88;100.00
42587;BME280;28216;53.362;-6.288;2022-11-20T06:16:47;100329.69;;;5.87;100.00
42587;BME280;28216;53.362;-6.288;2022-11-20T06:19:12;100328.88;;;5.86;100.00
42587;BME280;28216;53.362;-6.288;2022-11-20T06:21:37;100322.84;;;5.86;100.00
42587;BME280;28216;53.362;-6.288;2022-11-20T06:24:03;100321.06;;;5.86;100.00
42587;BME280;28216;53.362;-6.288;2022-11-20T06:26:30;100320.25;;;5.86;100.00
42587;BME280;28216;53.362;-6.288;2022-11-20T06:28:55;100311.63;;;5.85;100.00
42587;BME280;28216;53.362;-6.288;2022-11-20T06:31:23;100317.78;;;5.84;100.00
42587;BME280;28216;53.362;-6.288;2022-11-20T06:33:49;100325.72;;;5.83;100.00
42587;BME280;28216;53.362;-6.288;2022-11-20T06:36:17;100310.25;;;5.81;100.00
42587;BME280;28216;53.362;-6.288;2022-11-20T06:38:43;100305.88;;;5.82;100.00
42587;BME280;28216;53.362;-6.288;2022-11-20T06:41:14;100309.31;;;5.82;100.00
42587;BME280;28216;53.362;-6.288;2022-11-20T06:43:40;100318.06;;;5.81;100.00
42587;BME280;28216;53.362;-6.288;2022-11-20T06:46:06;100313.81;;;5.80;100.00
42587;BME280;28216;53.362;-6.288;2022-11-20T06:48:31;100300.97;;;5.79;100.00
42587;BME280;28216;53.362;-6.288;2022-11-20T06:50:57;100311.22;;;5.80;100.00
42587;BME280;28216;53.362;-6.288;2022-11-20T06:53:23;100314.78;;;5.79;100.00
42587;BME280;28216;53.362;-6.288;2022-11-20T06:55:50;100315.59;;;5.80;100.00
42587;BME280;28216;53.362;-6.288;2022-11-20T06:58:16;100317.25;;;5.81;100.00
42587;BME280;28216;53.362;-6.288;2022-11-20T07:00:42;100307.66;;;5.81;100.00
42587;BME280;28216;53.362;-6.288;2022-11-20T07:03:09;100311.09;;;5.82;100.00
42587;BME280;28216;53.362;-6.288;2022-11-20T07:05:36;100310.25;;;5.81;100.00
42587;BME280;28216;53.362;-6.288;2022-11-20T07:08:02;100299.19;;;5.79;100.00
42587;BME280;28216;53.362;-6.288;2022-11-20T07:10:28;100301.78;;;5.79;100.00
42587;BME280;28216;53.362;-6.288;2022-11-20T07:12:54;100306.97;;;5.79;100.00
42587;BME280;28216;53.362;-6.288;2022-11-20T07:15:21;100300.97;;;5.79;100.00
42587;BME280;28216;53.362;-6.288;2022-11-20T07:17:48;100297.53;;;5.78;100.00
42587;BME280;28216;53.362;-6.288;2022-11-20T07:20:14;100307.13;;;5.78;100.00
42587;BME280;28216;53.362;-6.288;2022-11-20T07:22:39;100302.06;;;5.76;100.00
42587;BME280;28216;53.362;-6.288;2022-11-20T07:25:05;100294.25;;;5.76;100.00
42587;BME280;28216;53.362;-6.288;2022-11-20T07:27:31;100290.00;;;5.75;100.00
42587;BME280;28216;53.362;-6.288;2022-11-20T07:29:57;100292.47;;;5.77;100.00
42587;BME280;28216;53.362;-6.288;2022-11-20T07:32:22;100289.88;;;5.77;100.00
42587;BME280;28216;53.362;-6.288;2022-11-20T07:34:48;100301.25;;;5.75;100.00
42587;BME280;28216;53.362;-6.288;2022-11-20T07:37:14;100299.44;;;5.76;100.00
42587;BME280;28216;53.362;-6.288;2022-11-20T07:39:40;100307.25;;;5.76;100.00
42587;BME280;28216;53.362;-6.288;2022-11-20T07:42:06;100305.47;;;5.77;100.00
42587;BME280;28216;53.362;-6.288;2022-11-20T07:44:31;100305.34;;;5.78;100.00
42587;BME280;28216;53.362;-6.288;2022-11-20T07:46:57;100312.19;;;5.79;100.00
42587;BME280;28216;53.362;-6.288;2022-11-20T07:49:22;100308.47;;;5.82;100.00
42587;BME280;28216;53.362;-6.288;2022-11-20T07:51:50;100306.56;;;5.84;100.00
42587;BME280;28216;53.362;-6.288;2022-11-20T07:54:16;100302.84;;;5.86;100.00
42587;BME280;28216;53.362;-6.288;2022-11-20T07:56:41;100294.09;;;5.87;100.00
42587;BME280;28216;53.362;-6.288;2022-11-20T07:59:07;100287.00;;;5.89;100.00
42587;BME280;28216;53.362;-6.288;2022-11-20T08:01:32;100286.72;;;5.92;100.00
42587;BME280;28216;53.362;-6.288;2022-11-20T08:03:58;100295.09;;;5.96;100.00
42587;BME280;28216;53.362;-6.288;2022-11-20T08:06:23;100292.06;;;6.00;100.00
42587;BME280;28216;53.362;-6.288;2022-11-20T08:08:50;100290.81;;;6.04;100.00
42587;BME280;28216;53.362;-6.288;2022-11-20T08:11:16;100280.00;;;6.09;100.00
42587;BME280;28216;53.362;-6.288;2022-11-20T08:14:00;100280.25;;;6.16;100.00
42587;BME280;28216;53.362;-6.288;2022-11-20T08:16:45;100277.88;;;6.22;100.00
42587;BME280;28216;53.362;-6.288;2022-11-20T08:19:12;100280.19;;;6.25;100.00
42587;BME280;28216;53.362;-6.288;2022-11-20T08:21:38;100275.53;;;6.29;100.00
42587;BME280;28216;53.362;-6.288;2022-11-20T08:24:08;100276.88;;;6.33;100.00
42587;BME280;28216;53.362;-6.288;2022-11-20T08:26:35;100273.31;;;6.34;100.00
42587;BME280;28216;53.362;-6.288;2022-11-20T08:29:02;100280.03;;;6.36;100.00
42587;BME280;28216;53.362;-6.288;2022-11-20T08:31:27;100273.69;;;6.39;100.00
42587;BME280;28216;53.362;-6.288;2022-11-20T08:33:53;100263.00;;;6.42;100.00
42587;BME280;28216;53.362;-6.288;2022-11-20T08:36:20;100276.41;;;6.47;100.00
42587;BME280;28216;53.362;-6.288;2022-11-20T08:38:51;100277.59;;;6.53;100.00
42587;BME280;28216;53.362;-6.288;2022-11-20T08:41:17;100288.25;;;6.59;100.00
42587;BME280;28216;53.362;-6.288;2022-11-20T08:43:50;100279.06;;;6.65;100.00
42587;BME280;28216;53.362;-6.288;2022-11-20T08:46:16;100285.50;;;6.71;100.00
42587;BME280;28216;53.362;-6.288;2022-11-20T08:48:42;100287.50;;;6.77;100.00
42587;BME280;28216;53.362;-6.288;2022-11-20T08:51:08;100281.88;;;6.81;100.00
42587;BME280;28216;53.362;-6.288;2022-11-20T08:53:34;100295.28;;;6.86;100.00
42587;BME280;28216;53.362;-6.288;2022-11-20T08:55:59;100290.59;;;6.90;100.00
42587;BME280;28216;53.362;-6.288;2022-11-20T08:58:27;100276.28;;;6.94;100.00
42587;BME280;28216;53.362;-6.288;2022-11-20T09:00:54;100280.25;;;6.98;100.00
42587;BME280;28216;53.362;-6.288;2022-11-20T09:03:20;100269.53;;;7.01;100.00
42587;BME280;28216;53.362;-6.288;2022-11-20T09:05:46;100275.41;;;7.03;100.00
42587;BME280;28216;53.362;-6.288;2022-11-20T09:08:12;100267.44;;;7.05;100.00
42587;BME280;28216;53.362;-6.288;2022-11-20T09:10:38;100264.53;;;7.08;100.00
42587;BME280;28216;53.362;-6.288;2022-11-20T09:13:05;100258.34;;;7.09;100.00
42587;BME280;28216;53.362;-6.288;2022-11-20T09:15:34;100260.81;;;7.10;100.00
42587;BME280;28216;53.362;-6.288;2022-11-20T09:18:02;100245.16;;;7.10;100.00
42587;BME280;28216;53.362;-6.288;2022-11-20T09:20:30;100237.34;;;7.10;100.00
42587;BME280;28216;53.362;-6.288;2022-11-20T09:22:57;100244.19;;;7.11;100.00
42587;BME280;28216;53.362;-6.288;2022-11-20T09:25:26;100237.19;;;7.12;100.00
42587;BME280;28216;53.362;-6.288;2022-11-20T09:27:56;100225.13;;;7.11;100.00
42587;BME280;28216;53.362;-6.288;2022-11-20T09:30:22;100224.00;;;7.13;100.00
42587;BME280;28216;53.362;-6.288;2022-11-20T09:32:48;100222.06;;;7.15;100.00
42587;BME280;28216;53.362;-6.288;2022-11-20T09:35:21;100217.38;;;7.19;100.00
42587;BME280;28216;53.362;-6.288;2022-11-20T09:37:56;100220.22;;;7.25;100.00
42587;BME280;28216;53.362;-6.288;2022-11-20T09:40:25;100199.41;;;7.33;100.00
42587;BME280;28216;53.362;-6.288;2022-11-20T09:51:53;100193.72;;;7.56;100.00
42587;BME280;28216;53.362;-6.288;2022-11-20T09:54:27;100216.59;;;7.62;100.00
42587;BME280;28216;53.362;-6.288;2022-11-20T09:57:22;100215.75;;;7.61;100.00
42587;BME280;28216;53.362;-6.288;2022-11-20T09:59:55;100208.13;;;7.68;100.00
42587;BME280;28216;53.362;-6.288;2022-11-20T10:02:35;100215.81;;;7.70;100.00
42587;BME280;28216;53.362;-6.288;2022-11-20T10:05:33;100214.03;;;7.70;100.00
42587;BME280;28216;53.362;-6.288;2022-11-20T10:08:23;100218.28;;;7.71;100.00
42587;BME280;28216;53.362;-6.288;2022-11-20T10:11:02;100204.72;;;7.68;100.00
42587;BME280;28216;53.362;-6.288;2022-11-20T10:19:47;100215.81;;;7.70;100.00
42587;BME280;28216;53.362;-6.288;2022-11-20T10:27:34;100223.03;;;7.76;100.00
42587;BME280;28216;53.362;-6.288;2022-11-20T10:32:36;100230.69;;;7.77;100.00
42587;BME280;28216;53.362;-6.288;2022-11-20T10:37:37;100229.06;;;7.76;100.00
42587;BME280;28216;53.362;-6.288;2022-11-20T10:40:30;100238.03;;;7.74;100.00
42587;BME280;28216;53.362;-6.288;2022-11-20T10:43:02;100242.72;;;7.70;100.00
42587;BME280;28216;53.362;-6.288;2022-11-20T10:51:05;100252.81;;;7.65;100.00
42587;BME280;28216;53.362;-6.288;2022-11-20T10:53:45;100261.66;;;7.72;100.00
42587;BME280;28216;53.362;-6.288;2022-11-20T10:56:26;100268.25;;;7.84;100.00
42587;BME280;28216;53.362;-6.288;2022-11-20T11:01:41;100263.66;;;8.04;100.00
42587;BME280;28216;53.362;-6.288;2022-11-20T11:04:40;100281.16;;;8.12;100.00
42587;BME280;28216;53.362;-6.288;2022-11-20T11:07:12;100284.94;;;8.17;100.00
42587;BME280;28216;53.362;-6.288;2022-11-20T11:09:50;100293.63;;;8.18;100.00
42587;BME280;28216;53.362;-6.288;2022-11-20T11:12:17;100295.09;;;8.20;100.00
42587;BME280;28216;53.362;-6.288;2022-11-20T11:14:51;100298.38;;;8.22;100.00
42587;BME280;28216;53.362;-6.288;2022-11-20T11:17:31;100301.28;;;8.19;100.00
42587;BME280;28216;53.362;-6.288;2022-11-20T11:20:19;100311.75;;;8.19;100.00
42587;BME280;28216;53.362;-6.288;2022-11-20T11:25:43;100313.81;;;8.16;100.00
42587;BME280;28216;53.362;-6.288;2022-11-20T11:28:22;100306.13;;;8.14;100.00
42587;BME280;28216;53.362;-6.288;2022-11-20T11:30:51;100307.25;;;8.12;100.00
42587;BME280;28216;53.362;-6.288;2022-11-20T11:33:37;100311.34;;;8.14;100.00
42587;BME280;28216;53.362;-6.288;2022-11-20T11:36:17;100300.75;;;8.16;100.00
42587;BME280;28216;53.362;-6.288;2022-11-20T11:38:44;100307.78;;;8.15;100.00
42587;BME280;28216;53.362;-6.288;2022-11-20T11:41:17;100299.56;;;8.10;100.00
42587;BME280;28216;53.362;-6.288;2022-11-20T11:43:53;100303.16;;;8.09;100.00
42587;BME280;28216;53.362;-6.288;2022-11-20T11:46:39;100295.78;;;8.05;100.00
42587;BME280;28216;53.362;-6.288;2022-11-20T11:54:23;100320.09;;;8.05;100.00
42587;BME280;28216;53.362;-6.288;2022-11-20T11:56:50;100325.13;;;7.98;100.00
42587;BME280;28216;53.362;-6.288;2022-11-20T11:59:31;100318.88;;;7.91;100.00
42587;BME280;28216;53.362;-6.288;2022-11-20T12:02:04;100324.25;;;7.90;100.00
42587;BME280;28216;53.362;-6.288;2022-11-20T12:07:12;100330.97;;;7.92;100.00
42587;BME280;28216;53.362;-6.288;2022-11-20T12:09:47;100325.28;;;7.97;100.00
42587;BME280;28216;53.362;-6.288;2022-11-20T12:12:26;100331.84;;;8.01;100.00
42587;BME280;28216;53.362;-6.288;2022-11-20T12:14:54;100324.50;;;8.05;100.00
42587;BME280;28216;53.362;-6.288;2022-11-20T12:17:21;100315.72;;;8.06;100.00
42587;BME280;28216;53.362;-6.288;2022-11-20T12:19:46;100312.13;;;8.07;100.00
42587;BME280;28216;53.362;-6.288;2022-11-20T12:22:28;100310.47;;;8.06;100.00
42587;BME280;28216;53.362;-6.288;2022-11-20T12:25:00;100316.69;;;8.05;100.00
42587;BME280;28216;53.362;-6.288;2022-11-20T12:27:44;100306.09;;;8.06;100.00
42587;BME280;28216;53.362;-6.288;2022-11-20T12:30:19;100304.13;;;8.08;100.00
42587;BME280;28216;53.362;-6.288;2022-11-20T12:33:24;100313.09;;;8.06;100.00
42587;BME280;28216;53.362;-6.288;2022-11-20T12:36:13;100308.84;;;8.05;100.00
42587;BME280;28216;53.362;-6.288;2022-11-20T12:42:12;100305.63;;;8.11;100.00
42587;BME280;28216;53.362;-6.288;2022-11-20T12:50:32;100305.53;;;8.20;100.00
42587;BME280;28216;53.362;-6.288;2022-11-20T12:53:05;100314.03;;;8.22;100.00
42587;BME280;28216;53.362;-6.288;2022-11-20T12:55:51;100309.47;;;8.24;100.00
42587;BME280;28216;53.362;-6.288;2022-11-20T12:58:48;100306.72;;;8.26;100.00
42587;BME280;28216;53.362;-6.288;2022-11-20T13:01:24;100314.25;;;8.29;100.00
42587;BME280;28216;53.362;-6.288;2022-11-20T13:06:47;100317.34;;;8.33;100.00
42587;BME280;28216;53.362;-6.288;2022-11-20T13:09:16;100310.22;;;8.35;100.00
42587;BME280;28216;53.362;-6.288;2022-11-20T13:12:07;100315.13;;;8.38;100.00
42587;BME280;28216;53.362;-6.288;2022-11-20T13:17:36;100316.63;;;8.40;100.00
42587;BME280;28216;53.362;-6.288;2022-11-20T13:20:12;100318.09;;;8.43;100.00
42587;BME280;28216;53.362;-6.288;2022-11-20T13:22:49;100330.34;;;8.42;100.00
42587;BME280;28216;53.362;-6.288;2022-11-20T13:28:01;100324.13;;;8.43;100.00
42587;BME280;28216;53.362;-6.288;2022-11-20T13:30:29;100318.59;;;8.46;100.00
42587;BME280;28216;53.362;-6.288;2022-11-20T13:32:57;100346.06;;;8.50;100.00
42587;BME280;28216;53.362;-6.288;2022-11-20T13:35:40;100311.94;;;8.52;100.00
42587;BME280;28216;53.362;-6.288;2022-11-20T13:40:55;100327.09;;;8.48;100.00
42587;BME280;28216;53.362;-6.288;2022-11-20T13:46:03;100333.16;;;8.49;100.00
42587;BME280;28216;53.362;-6.288;2022-11-20T13:48:32;100334.94;;;8.48;100.00
42587;BME280;28216;53.362;-6.288;2022-11-20T13:53:52;100342.94;;;8.47;100.00
42587;BME280;28216;53.362;-6.288;2022-11-20T14:01:35;100341.13;;;8.47;99.23
42587;BME280;28216;53.362;-6.288;2022-11-20T14:04:07;100348.97;;;8.47;98.45
42587;BME280;28216;53.362;-6.288;2022-11-20T14:06:41;100337.72;;;8.47;97.64
42587;BME280;28216;53.362;-6.288;2022-11-20T14:09:34;100337.88;;;8.45;94.81
42587;BME280;28216;53.362;-6.288;2022-11-20T14:12:02;100341.97;;;8.48;96.94
42587;BME280;28216;53.362;-6.288;2022-11-20T14:14:33;100343.75;;;8.47;96.14